CheckWX is a tool to help pilots better visualize weather data.  It is not intended as a substitute for an official pre-flight weather briefing.

05:19:09 UTC

KAQX METAR
Allendale County Airport
Allendale, South Carolina, USA
Current

24 mins ago

KAQX 200455Z AUTO VRB05KT 10SM BKN010 OVC013 05/05 A3039 RMK AO2 TSNO
Observed
Feb-20 @ 04:55 UTC
Wind
  • Variable at 5 KTS
Visibility
16,093 meters
Flight Rules
MVFR
Cloud Levels
  • Broken at 1,000' AGL
  • Overcast at 1,300' AGL
Temperature
C / 41°F
Dewpoint
C / 41°F
Humidity
100%
Altimeter
30.39" Hg
Pressure
1029.11 hPa
Previous

44 mins ago

KAQX 200435Z AUTO VRB04G13KT 10SM SCT012 OVC025 05/04 A3039 RMK AO2 TSNO
Observed
Feb-20 @ 04:35 UTC
Wind
  • Variable at 4 KTS
  • Gusting to 13 KTS
Visibility
16,093 meters
Flight Rules
MVFR
Cloud Levels
  • Scattered at 1,200' AGL
  • Overcast at 2,500' AGL
Temperature
C / 41°F
Dewpoint
C / 39°F
Humidity
93%
Altimeter
30.39" Hg
Pressure
1029.11 hPa
Previous

1 hour ago

KAQX 200415Z AUTO 00000G12KT 4SM BR FEW013 OVC025 05/04 A3040 RMK AO2 TSNO
Observed
Feb-20 @ 04:15 UTC
Visibility
6,437 meters
Flight Rules
MVFR
Conditions
Mist
Cloud Levels
  • Few at 1,300' AGL
  • Overcast at 2,500' AGL
Temperature
C / 41°F
Dewpoint
C / 39°F
Humidity
93%
Altimeter
30.4" Hg
Pressure
1029.41 hPa